createdAt,value
2022-08-26T00:02:20.719Z,16.55
2022-08-26T00:04:50.533Z,18.35
2022-08-26T00:07:19.959Z,16.70
2022-08-26T00:09:47.692Z,18.27
2022-08-26T00:12:19.175Z,18.98
2022-08-26T00:15:01.086Z,19.50
2022-08-26T00:17:35.589Z,19.20
2022-08-26T00:20:06.206Z,21.13
2022-08-26T00:22:37.547Z,21.17
2022-08-26T00:25:08.078Z,20.35
2022-08-26T00:27:37.189Z,20.10
2022-08-26T00:30:14.860Z,22.38
2022-08-26T00:32:46.275Z,22.30
2022-08-26T00:35:16.484Z,20.58
2022-08-26T00:37:44.705Z,22.00
2022-08-26T00:40:21.776Z,22.05
2022-08-26T00:42:48.887Z,21.67
2022-08-26T00:45:17.392Z,29.83
2022-08-26T00:47:50.034Z,23.88
2022-08-26T00:50:22.187Z,24.90
2022-08-26T00:53:00.499Z,25.52
2022-08-26T00:55:38.037Z,18.63
2022-08-26T00:58:06.975Z,20.33
2022-08-26T01:00:39.971Z,15.95
2022-08-26T01:03:23.594Z,18.88
2022-08-26T01:08:24.375Z,15.50
2022-08-26T01:11:11.833Z,13.48
2022-08-26T01:13:40.169Z,17.55
2022-08-26T01:16:17.175Z,18.38
2022-08-26T01:18:48.889Z,14.20
2022-08-26T01:21:31.994Z,14.82
2022-08-26T01:24:00.615Z,14.88
2022-08-26T01:26:41.602Z,13.18
2022-08-26T01:29:18.200Z,13.35
2022-08-26T01:31:56.134Z,14.23
2022-08-26T01:34:28.186Z,14.90
2022-08-26T01:37:17.226Z,13.95
2022-08-26T01:39:49.568Z,13.88
2022-08-26T01:42:28.561Z,14.82
2022-08-26T01:45:11.436Z,12.98
2022-08-26T01:47:46.376Z,12.05
2022-08-26T01:50:28.186Z,12.93
2022-08-26T01:53:13.114Z,15.27
2022-08-26T01:55:53.325Z,15.20
2022-08-26T01:58:49.454Z,14.35
2022-08-26T02:01:28.942Z,15.32
2022-08-26T02:04:14.912Z,14.50
2022-08-26T02:06:43.500Z,13.20
2022-08-26T02:09:13.532Z,12.20
2022-08-26T02:11:45.792Z,12.18
2022-08-26T02:14:35.076Z,11.80
2022-08-26T02:17:12.632Z,13.48
2022-08-26T02:19:47.092Z,13.93
2022-08-26T02:22:18.959Z,13.88
2022-08-26T02:24:57.666Z,13.98
2022-08-26T02:27:36.953Z,13.25
2022-08-26T02:30:10.195Z,13.95
2022-08-26T02:32:49.984Z,16.80
2022-08-26T02:35:20.146Z,16.65
2022-08-26T02:37:50.282Z,18.40
2022-08-26T02:40:21.828Z,16.23
2022-08-26T02:42:52.997Z,15.57
2022-08-26T02:45:28.271Z,15.18
2022-08-26T02:48:09.585Z,17.08
2022-08-26T02:50:39.286Z,17.30
2022-08-26T02:53:07.639Z,16.60
2022-08-26T02:55:41.407Z,18.45
2022-08-26T02:58:09.909Z,17.10
2022-08-26T03:00:57.617Z,13.77
2022-08-26T03:03:57.845Z,14.57
2022-08-26T03:06:25.226Z,16.17
2022-08-26T03:08:54.072Z,14.52
2022-08-26T03:11:24.057Z,16.20
2022-08-26T03:13:52.029Z,20.27
2022-08-26T03:16:32.336Z,18.70
2022-08-26T03:19:06.211Z,17.73
2022-08-26T03:21:35.010Z,16.13
2022-08-26T03:24:04.475Z,19.17
2022-08-26T03:26:33.820Z,17.05
2022-08-26T03:29:23.256Z,17.48
2022-08-26T03:31:58.375Z,18.70
2022-08-26T03:34:32.271Z,18.77
2022-08-26T03:37:00.479Z,20.27
2022-08-26T03:39:32.615Z,19.98
2022-08-26T03:42:15.212Z,23.58
2022-08-26T03:44:45.455Z,20.80
2022-08-26T03:47:12.473Z,19.13
2022-08-26T03:49:42.672Z,17.13
2022-08-26T03:52:10.758Z,14.88
2022-08-26T03:54:39.138Z,13.52
2022-08-26T03:57:07.100Z,13.45
2022-08-26T03:59:34.319Z,13.15
2022-08-26T04:02:03.469Z,14.25
2022-08-26T04:04:36.766Z,14.50
2022-08-26T04:07:09.859Z,13.70
2022-08-26T04:09:57.343Z,13.93
2022-08-26T04:12:25.813Z,13.38
2022-08-26T04:15:01.148Z,14.40
2022-08-26T04:17:39.144Z,17.10
2022-08-26T04:20:16.162Z,22.77
2022-08-26T04:22:43.716Z,20.73
2022-08-26T04:25:13.194Z,21.75
2022-08-26T04:27:41.651Z,17.85
2022-08-26T04:30:13.950Z,17.13
2022-08-26T04:33:12.672Z,17.63
2022-08-26T04:36:05.769Z,16.85
2022-08-26T04:38:34.756Z,19.00
2022-08-26T04:41:15.649Z,19.25
2022-08-26T04:43:45.607Z,18.50
2022-08-26T04:46:19.537Z,20.38
2022-08-26T04:48:51.981Z,19.30
2022-08-26T04:51:28.124Z,20.00
2022-08-26T04:54:07.351Z,18.75
2022-08-26T04:56:48.720Z,19.33
2022-08-26T04:59:18.184Z,19.60
2022-08-26T05:01:59.984Z,18.65
2022-08-26T05:04:28.285Z,20.38
2022-08-26T05:07:02.582Z,19.60
2022-08-26T05:09:30.448Z,19.35
2022-08-26T05:12:03.729Z,21.17
2022-08-26T05:14:35.746Z,23.60
2022-08-26T05:17:04.009Z,24.73
2022-08-26T05:19:38.596Z,25.58
2022-08-26T05:22:10.184Z,23.52
2022-08-26T05:24:47.450Z,26.02
2022-08-26T05:27:23.496Z,26.42
2022-08-26T05:29:57.957Z,27.25
2022-08-26T05:32:25.253Z,26.92
2022-08-26T05:35:02.944Z,27.08
2022-08-26T05:37:40.043Z,25.20
2022-08-26T05:40:09.590Z,25.70
2022-08-26T05:42:37.540Z,26.02
2022-08-26T05:45:05.980Z,25.63
2022-08-26T05:47:33.932Z,27.13
2022-08-26T05:50:10.098Z,28.50
2022-08-26T05:52:39.250Z,30.90
2022-08-26T05:55:08.830Z,30.23
2022-08-26T05:57:42.159Z,30.15
2022-08-26T06:00:17.911Z,30.27
2022-08-26T06:02:51.864Z,32.08
2022-08-26T06:05:20.090Z,31.17
2022-08-26T06:08:07.498Z,31.67
2022-08-26T06:11:00.471Z,34.50
2022-08-26T06:13:32.367Z,32.88
2022-08-26T06:16:03.457Z,33.45
2022-08-26T06:18:35.376Z,32.78
2022-08-26T06:21:26.055Z,34.17
2022-08-26T06:24:14.464Z,32.88
2022-08-26T06:26:50.760Z,31.70
2022-08-26T06:29:25.632Z,30.45
2022-08-26T06:31:57.272Z,32.10
2022-08-26T06:34:29.617Z,30.05
2022-08-26T06:37:01.542Z,28.48
2022-08-26T06:39:30.840Z,28.30
2022-08-26T06:42:02.702Z,28.70
2022-08-26T06:44:31.193Z,28.38
2022-08-26T06:47:05.709Z,28.50
2022-08-26T06:49:39.873Z,27.73
2022-08-26T06:52:13.161Z,24.17
2022-08-26T06:54:44.251Z,23.85
2022-08-26T06:57:12.842Z,26.92
2022-08-26T06:59:42.747Z,24.52
2022-08-26T07:02:13.530Z,24.20
2022-08-26T07:04:47.869Z,24.13
2022-08-26T07:07:17.284Z,22.98
2022-08-26T07:09:47.188Z,22.75
2022-08-26T07:12:18.719Z,23.35
2022-08-26T07:14:49.001Z,23.10
2022-08-26T07:17:25.014Z,22.05
2022-08-26T07:19:53.881Z,21.27
2022-08-26T07:22:20.931Z,21.63
2022-08-26T07:24:57.100Z,21.25
2022-08-26T07:27:24.091Z,21.40
2022-08-26T07:29:56.950Z,20.45
2022-08-26T07:32:29.076Z,19.73
2022-08-26T07:34:57.108Z,19.83
2022-08-26T07:37:27.229Z,18.60
2022-08-26T07:39:58.807Z,17.58
2022-08-26T07:42:29.937Z,16.60
2022-08-26T07:44:58.313Z,17.35
2022-08-26T07:47:26.537Z,16.63
2022-08-26T07:49:57.405Z,14.88
2022-08-26T07:52:27.928Z,14.38
2022-08-26T07:55:00.448Z,13.27
2022-08-26T07:57:28.692Z,14.73
2022-08-26T07:59:57.069Z,14.23
2022-08-26T08:02:25.812Z,14.45
2022-08-26T08:04:58.091Z,13.35
2022-08-26T08:07:45.121Z,14.73
2022-08-26T08:10:21.108Z,13.40
2022-08-26T08:12:51.663Z,13.88
2022-08-26T08:15:25.197Z,12.93
2022-08-26T08:17:58.825Z,13.27
2022-08-26T08:20:28.662Z,12.27
2022-08-26T08:22:56.216Z,10.65
2022-08-26T08:25:24.751Z,10.73
2022-08-26T08:27:51.880Z,11.13
2022-08-26T08:30:22.821Z,10.98
2022-08-26T08:32:56.613Z,11.55
2022-08-26T08:35:31.815Z,13.02
2022-08-26T08:37:58.837Z,12.82
2022-08-26T08:40:27.599Z,12.23
2022-08-26T08:43:06.409Z,11.55
2022-08-26T08:45:38.784Z,10.45
2022-08-26T08:48:43.888Z,11.45
2022-08-26T08:51:49.605Z,12.40
2022-08-26T08:54:17.080Z,11.23
2022-08-26T08:57:07.603Z,10.85
2022-08-26T08:59:47.890Z,11.27
2022-08-26T09:02:43.336Z,11.15
2022-08-26T09:05:45.468Z,13.35
2022-08-26T09:08:29.894Z,115.97
2022-08-26T09:11:04.312Z,14.30
2022-08-26T09:13:34.102Z,12.48
2022-08-26T09:16:16.128Z,10.80
2022-08-26T09:18:55.871Z,12.18
2022-08-26T09:21:30.120Z,10.63
2022-08-26T09:23:59.440Z,11.60
2022-08-26T09:26:45.584Z,11.15
2022-08-26T09:29:34.135Z,9.75
2022-08-26T09:32:24.888Z,9.93
2022-08-26T09:34:59.813Z,10.48
2022-08-26T09:40:42.598Z,9.57
2022-08-26T09:43:22.628Z,9.68
2022-08-26T09:46:10.016Z,9.10
2022-08-26T09:48:47.673Z,10.85
2022-08-26T09:51:27.034Z,10.27
2022-08-26T09:54:03.280Z,10.38
2022-08-26T09:56:39.222Z,12.20
2022-08-26T09:59:30.964Z,14.20
2022-08-26T10:02:29.876Z,9.57
2022-08-26T10:05:09.371Z,8.65
2022-08-26T10:07:41.331Z,9.48
2022-08-26T10:10:15.590Z,8.90
2022-08-26T10:13:22.000Z,8.65
2022-08-26T10:16:22.152Z,8.63
2022-08-26T10:19:06.693Z,11.00
2022-08-26T10:24:07.898Z,9.00
2022-08-26T10:26:48.943Z,8.50
2022-08-26T10:29:34.703Z,8.63
2022-08-26T10:32:16.837Z,8.55
2022-08-26T10:34:44.302Z,8.85
2022-08-26T10:37:23.181Z,8.50
2022-08-26T10:43:08.484Z,7.35
2022-08-26T10:45:43.934Z,6.75
2022-08-26T10:48:21.935Z,7.00
2022-08-26T10:50:51.833Z,6.20
2022-08-26T10:53:39.843Z,6.57
2022-08-26T10:56:28.774Z,6.47
2022-08-26T10:59:13.780Z,6.38
2022-08-26T11:01:54.261Z,6.25
2022-08-26T11:04:31.081Z,5.93
2022-08-26T11:07:40.790Z,5.93
2022-08-26T11:10:42.555Z,6.55
2022-08-26T11:13:10.928Z,5.00
2022-08-26T11:15:46.206Z,4.85
2022-08-26T11:18:40.493Z,4.68
2022-08-26T11:21:49.496Z,5.18
2022-08-26T11:25:00.381Z,4.57
2022-08-26T11:27:48.134Z,4.70
2022-08-26T11:31:12.576Z,4.80
2022-08-26T11:34:08.861Z,4.80
2022-08-26T11:37:28.011Z,4.10
2022-08-26T11:40:01.004Z,4.72
2022-08-26T11:42:50.916Z,4.60
2022-08-26T11:45:27.080Z,5.65
2022-08-26T11:47:56.507Z,4.78
2022-08-26T11:50:29.009Z,4.00
2022-08-26T11:53:06.091Z,4.25
2022-08-26T11:55:36.473Z,3.92
2022-08-26T11:58:35.912Z,3.90
2022-08-26T12:01:26.761Z,3.70
2022-08-26T12:04:06.860Z,3.90
2022-08-26T12:06:46.056Z,3.40
2022-08-26T12:09:24.519Z,4.18
2022-08-26T12:12:25.139Z,3.20
2022-08-26T12:15:10.318Z,3.28
2022-08-26T12:17:46.643Z,3.35
2022-08-26T12:20:46.574Z,3.47
2022-08-26T12:23:23.407Z,3.40
2022-08-26T12:26:07.707Z,3.58
2022-08-26T12:28:49.975Z,4.35
2022-08-26T12:31:43.562Z,3.78
2022-08-26T12:34:18.539Z,3.90
2022-08-26T12:39:33.601Z,3.33
2022-08-26T12:42:03.082Z,3.38
2022-08-26T12:44:34.478Z,3.42
2022-08-26T12:47:08.741Z,3.50
2022-08-26T12:49:43.516Z,3.53
2022-08-26T12:52:32.964Z,3.70
2022-08-26T12:55:18.559Z,3.60
2022-08-26T12:57:48.415Z,3.08
2022-08-26T13:00:28.483Z,3.58
2022-08-26T13:02:56.178Z,3.60
2022-08-26T13:05:28.054Z,3.25
2022-08-26T13:08:25.560Z,3.50
2022-08-26T13:11:11.061Z,3.90
2022-08-26T13:13:40.686Z,4.43
2022-08-26T13:16:42.802Z,4.28
2022-08-26T13:19:15.087Z,3.35
2022-08-26T13:21:53.351Z,3.97
2022-08-26T13:24:31.958Z,3.70
2022-08-26T13:27:07.506Z,3.78
2022-08-26T13:29:55.501Z,4.13
2022-08-26T13:32:32.198Z,3.83
2022-08-26T13:35:00.454Z,3.85
2022-08-26T13:37:35.673Z,4.05
2022-08-26T13:40:14.677Z,3.20
2022-08-26T13:43:08.517Z,3.40
2022-08-26T13:45:38.969Z,3.70
2022-08-26T13:48:07.590Z,3.55
2022-08-26T13:50:40.754Z,4.30
2022-08-26T13:55:46.158Z,3.53
2022-08-26T13:58:14.236Z,3.78
2022-08-26T14:00:43.814Z,3.45
2022-08-26T14:03:16.819Z,3.63
2022-08-26T14:08:47.225Z,3.95
2022-08-26T14:11:16.275Z,4.03
2022-08-26T14:13:47.606Z,3.60
2022-08-26T14:16:35.250Z,3.45
2022-08-26T14:19:14.415Z,3.72
2022-08-26T14:21:41.537Z,3.80
2022-08-26T14:24:09.766Z,3.97
2022-08-26T14:26:37.938Z,4.18
2022-08-26T14:29:06.520Z,4.05
2022-08-26T14:31:35.960Z,4.40
2022-08-26T14:34:07.695Z,4.57
2022-08-26T14:36:39.882Z,5.30
2022-08-26T14:39:12.024Z,3.80
2022-08-26T14:41:55.047Z,4.72
2022-08-26T14:44:58.041Z,4.55
2022-08-26T14:47:27.379Z,3.78
2022-08-26T14:50:02.742Z,4.40
2022-08-26T14:52:57.580Z,3.78
2022-08-26T14:55:39.096Z,3.88
2022-08-26T14:58:08.023Z,4.10
2022-08-26T15:00:40.225Z,4.18
2022-08-26T15:03:11.507Z,4.47
2022-08-26T15:05:49.056Z,3.80
2022-08-26T15:08:24.486Z,4.00
2022-08-26T15:11:01.839Z,4.40
2022-08-26T15:13:38.890Z,4.00
2022-08-26T15:16:06.263Z,4.15
2022-08-26T15:18:45.742Z,3.70
2022-08-26T15:21:14.888Z,5.05
2022-08-26T15:23:47.759Z,3.75
2022-08-26T15:26:16.243Z,3.80
2022-08-26T15:28:45.867Z,3.65
2022-08-26T15:31:16.335Z,4.28
2022-08-26T15:33:46.681Z,4.07
2022-08-26T15:36:48.246Z,3.25
2022-08-26T15:39:27.618Z,3.63
2022-08-26T15:42:04.072Z,3.88
2022-08-26T15:44:31.183Z,4.20
2022-08-26T15:46:59.331Z,3.22
2022-08-26T15:49:55.947Z,3.88
2022-08-26T15:52:23.166Z,4.18
2022-08-26T15:54:53.063Z,3.50
2022-08-26T15:57:32.697Z,4.43
2022-08-26T16:00:06.021Z,4.45
2022-08-26T16:02:54.614Z,4.40
2022-08-26T16:05:23.988Z,4.65
2022-08-26T16:07:53.194Z,4.40
2022-08-26T16:10:20.394Z,4.60
2022-08-26T16:12:51.109Z,4.10
2022-08-26T16:15:19.384Z,4.90
2022-08-26T16:17:48.735Z,3.15
2022-08-26T16:20:32.801Z,3.42
2022-08-26T16:23:01.725Z,3.40
2022-08-26T16:25:30.915Z,3.33
2022-08-26T16:28:14.339Z,3.60
2022-08-26T16:30:53.315Z,3.50
2022-08-26T16:33:29.402Z,3.67
2022-08-26T16:35:59.016Z,4.25
2022-08-26T16:38:27.274Z,3.88
2022-08-26T16:40:54.458Z,3.60
2022-08-26T16:43:21.786Z,3.47
2022-08-26T16:46:16.404Z,3.25
2022-08-26T16:49:25.236Z,3.50
2022-08-26T16:51:54.389Z,3.90
2022-08-26T16:54:40.488Z,3.65
2022-08-26T16:57:23.854Z,3.20
2022-08-26T16:59:59.126Z,3.90
2022-08-26T17:02:26.232Z,3.55
2022-08-26T17:04:57.007Z,3.70
2022-08-26T17:07:30.395Z,4.05
2022-08-26T17:12:24.711Z,4.10
2022-08-26T17:14:51.959Z,4.00
2022-08-26T17:17:19.084Z,3.90
2022-08-26T17:19:47.069Z,4.50
2022-08-26T17:22:15.852Z,5.35
2022-08-26T17:24:52.471Z,4.72
2022-08-26T17:27:34.979Z,4.20
2022-08-26T17:30:11.059Z,4.97
2022-08-26T17:32:42.533Z,6.15
2022-08-26T17:35:56.152Z,4.50
2022-08-26T17:38:29.486Z,4.47
2022-08-26T17:41:08.704Z,5.25
2022-08-26T17:43:57.485Z,4.22
2022-08-26T17:46:27.646Z,4.72
2022-08-26T17:48:54.897Z,4.75
2022-08-26T17:51:24.701Z,5.80
2022-08-26T17:53:54.144Z,5.32
2022-08-26T17:56:25.984Z,5.20
2022-08-26T17:58:56.855Z,6.20
2022-08-26T18:01:30.181Z,17.95
2022-08-26T18:04:00.532Z,11.50
2022-08-26T18:06:29.246Z,11.10
2022-08-26T18:08:56.715Z,10.68
2022-08-26T18:11:25.125Z,11.55
2022-08-26T18:13:52.423Z,11.98
2022-08-26T18:16:20.759Z,13.48
2022-08-26T18:19:15.142Z,12.32
2022-08-26T18:21:42.411Z,8.85
2022-08-26T18:24:13.792Z,5.85
2022-08-26T18:26:48.292Z,5.05
2022-08-26T18:29:25.770Z,5.22
2022-08-26T18:31:59.875Z,5.40
2022-08-26T18:34:31.683Z,5.47
2022-08-26T18:37:20.719Z,6.72
2022-08-26T18:39:47.916Z,5.18
2022-08-26T18:42:16.155Z,5.40
2022-08-26T18:44:43.232Z,5.85
2022-08-26T18:47:10.576Z,6.40
2022-08-26T18:49:39.294Z,7.25
2022-08-26T18:52:17.756Z,9.18
2022-08-26T18:55:07.348Z,8.35
2022-08-26T18:57:34.878Z,8.57
2022-08-26T19:00:05.669Z,8.40
2022-08-26T19:02:39.372Z,7.53
2022-08-26T19:05:15.271Z,7.25
2022-08-26T19:07:50.658Z,6.93
2022-08-26T19:10:19.956Z,7.90
2022-08-26T19:12:51.966Z,7.78
2022-08-26T19:15:46.683Z,7.38
2022-08-26T19:18:15.711Z,9.00
2022-08-26T19:20:58.898Z,7.93
2022-08-26T19:23:32.022Z,10.03
2022-08-26T19:26:04.136Z,9.15
2022-08-26T19:28:44.071Z,9.55
2022-08-26T19:31:13.181Z,9.55
2022-08-26T19:33:43.661Z,10.88
2022-08-26T19:36:22.603Z,12.15
2022-08-26T19:38:51.137Z,10.60
2022-08-26T19:41:26.563Z,11.38
2022-08-26T19:44:08.919Z,8.77
2022-08-26T19:46:40.577Z,9.07
2022-08-26T19:49:08.779Z,8.27
2022-08-26T19:51:39.980Z,7.45
2022-08-26T19:54:10.188Z,7.20
2022-08-26T19:56:37.638Z,7.38
2022-08-26T19:59:09.476Z,8.48
2022-08-26T20:02:00.641Z,11.38
2022-08-26T20:04:38.885Z,9.98
2022-08-26T20:07:10.395Z,10.18
2022-08-26T20:09:40.273Z,8.75
2022-08-26T20:12:09.396Z,8.50
2022-08-26T20:14:39.161Z,8.00
2022-08-26T20:17:14.124Z,8.38
2022-08-26T20:20:06.437Z,8.20
2022-08-26T20:22:58.111Z,8.88
2022-08-26T20:25:27.016Z,10.73
2022-08-26T20:28:02.384Z,12.90
2022-08-26T20:30:32.674Z,12.10
2022-08-26T20:33:00.958Z,12.73
2022-08-26T20:35:40.708Z,12.07
2022-08-26T20:38:11.073Z,16.58
2022-08-26T20:40:43.973Z,15.65
2022-08-26T20:43:15.780Z,13.73
2022-08-26T20:45:46.719Z,13.52
2022-08-26T20:48:25.055Z,11.35
2022-08-26T20:50:52.494Z,10.90
2022-08-26T20:53:31.690Z,10.30
2022-08-26T20:56:06.398Z,9.15
2022-08-26T20:58:41.520Z,8.93
2022-08-26T21:01:31.017Z,9.00
2022-08-26T21:03:58.237Z,8.05
2022-08-26T21:06:27.737Z,7.65
2022-08-26T21:08:57.845Z,7.75
2022-08-26T21:11:26.595Z,8.02
2022-08-26T21:14:16.260Z,7.75
2022-08-26T21:16:46.280Z,8.80
2022-08-26T21:19:29.476Z,11.55
2022-08-26T21:22:02.882Z,11.37
2022-08-26T21:24:42.053Z,13.57
2022-08-26T21:27:09.460Z,12.32
2022-08-26T21:29:45.704Z,12.38
2022-08-26T21:32:20.141Z,11.85
2022-08-26T21:34:50.345Z,12.93
2022-08-26T21:37:27.454Z,13.00
2022-08-26T21:39:59.748Z,14.15
2022-08-26T21:42:26.954Z,14.75
2022-08-26T21:44:54.395Z,15.20
2022-08-26T21:47:24.837Z,16.00
2022-08-26T21:49:52.239Z,15.35
2022-08-26T21:52:19.962Z,14.15
2022-08-26T21:54:49.310Z,14.23
2022-08-26T21:57:42.487Z,14.75
2022-08-26T22:00:28.112Z,13.77
2022-08-26T22:02:55.174Z,13.63
2022-08-26T22:05:30.391Z,13.73
2022-08-26T22:07:58.466Z,15.07
2022-08-26T22:10:25.786Z,15.00
2022-08-26T22:12:55.099Z,14.93
2022-08-26T22:15:26.055Z,12.75
2022-08-26T22:18:06.382Z,12.45
2022-08-26T22:20:37.798Z,13.05
2022-08-26T22:23:08.946Z,12.93
2022-08-26T22:25:37.924Z,12.05
2022-08-26T22:28:06.432Z,11.73
2022-08-26T22:30:49.262Z,11.77
2022-08-26T22:33:17.298Z,11.10
2022-08-26T22:35:49.366Z,10.93
2022-08-26T22:38:20.349Z,11.07
2022-08-26T22:40:57.505Z,10.57
2022-08-26T22:43:28.884Z,10.73
2022-08-26T22:45:58.064Z,12.40
2022-08-26T22:48:31.480Z,13.10
2022-08-26T22:51:00.343Z,12.60
2022-08-26T22:53:29.246Z,12.27
2022-08-26T22:56:09.717Z,25.90
2022-08-26T22:58:50.038Z,23.10
2022-08-26T23:01:19.521Z,20.67
2022-08-26T23:03:46.701Z,20.73
2022-08-26T23:06:14.232Z,19.50
2022-08-26T23:08:56.672Z,18.83
2022-08-26T23:11:31.746Z,14.98
2022-08-26T23:14:05.058Z,13.20
2022-08-26T23:17:14.711Z,12.60
2022-08-26T23:19:47.790Z,12.63
2022-08-26T23:22:15.106Z,12.35
2022-08-26T23:24:43.307Z,12.25
2022-08-26T23:27:10.869Z,12.25
2022-08-26T23:29:40.095Z,13.82
2022-08-26T23:32:07.220Z,13.77
2022-08-26T23:34:52.691Z,12.90
2022-08-26T23:37:31.799Z,13.45
2022-08-26T23:40:05.141Z,13.63
2022-08-26T23:42:41.435Z,13.43
2022-08-26T23:45:13.301Z,13.23
2022-08-26T23:47:41.436Z,11.93
2022-08-26T23:50:14.379Z,11.75
2022-08-26T23:53:06.291Z,12.00
2022-08-26T23:55:39.958Z,12.27
2022-08-26T23:58:09.125Z,12.75
